createdAt,value
2019-01-26T00:00:36.879Z,17.83
2019-01-26T00:05:29.304Z,17.30
2019-01-26T00:10:21.522Z,17.40
2019-01-26T00:15:14.589Z,16.87
2019-01-26T00:20:09.170Z,17.20
2019-01-26T00:25:01.824Z,18.77
2019-01-26T00:29:54.417Z,19.57
2019-01-26T00:34:46.649Z,17.03
2019-01-26T00:39:39.276Z,16.20
2019-01-26T00:44:31.721Z,16.07
2019-01-26T00:49:24.496Z,18.27
2019-01-26T00:54:16.904Z,23.00
2019-01-26T00:59:09.188Z,20.50
2019-01-26T01:04:01.398Z,20.20
2019-01-26T01:08:53.993Z,19.00
2019-01-26T01:13:46.727Z,18.63
2019-01-26T01:18:39.404Z,21.50
2019-01-26T01:23:32.231Z,18.97
2019-01-26T01:28:24.905Z,18.33
2019-01-26T01:33:17.353Z,17.03
2019-01-26T01:38:10.060Z,17.13
2019-01-26T01:43:02.325Z,16.57
2019-01-26T01:47:55.068Z,16.30
2019-01-26T01:52:47.573Z,15.27
2019-01-26T01:57:40.317Z,16.60
2019-01-26T02:02:33.274Z,16.10
2019-01-26T02:07:25.580Z,14.90
2019-01-26T02:12:17.817Z,13.47
2019-01-26T02:17:14.949Z,14.27
2019-01-26T02:22:07.457Z,14.07
2019-01-26T02:26:59.917Z,13.77
2019-01-26T02:31:52.344Z,12.67
2019-01-26T02:36:44.829Z,14.33
2019-01-26T02:41:37.422Z,14.10
2019-01-26T02:46:29.969Z,14.63
2019-01-26T02:51:22.564Z,14.20
2019-01-26T02:56:14.893Z,13.40
2019-01-26T03:01:07.538Z,12.23
2019-01-26T03:05:59.774Z,11.70
2019-01-26T03:10:52.404Z,11.27
2019-01-26T03:15:44.884Z,11.10
2019-01-26T03:20:37.472Z,10.87
2019-01-26T03:25:30.206Z,11.30
2019-01-26T03:30:24.467Z,11.60
2019-01-26T03:35:16.868Z,11.83
2019-01-26T03:40:12.288Z,11.00
2019-01-26T03:45:06.762Z,10.90
2019-01-26T03:49:59.320Z,11.60
2019-01-26T03:54:52.149Z,11.37
2019-01-26T03:59:45.057Z,11.43
2019-01-26T04:04:37.919Z,11.73
2019-01-26T04:09:30.448Z,11.43
2019-01-26T04:14:22.918Z,10.93
2019-01-26T04:19:15.813Z,11.13
2019-01-26T04:24:08.206Z,11.40
2019-01-26T04:29:00.545Z,11.03
2019-01-26T04:33:52.998Z,10.50
2019-01-26T04:38:45.353Z,10.70
2019-01-26T04:43:37.635Z,10.60
2019-01-26T04:48:30.268Z,11.00
2019-01-26T04:53:23.040Z,11.40
2019-01-26T04:58:15.681Z,10.43
2019-01-26T05:03:08.365Z,11.27
2019-01-26T05:08:01.042Z,10.80
2019-01-26T05:12:53.980Z,11.50
2019-01-26T05:17:46.730Z,11.23
2019-01-26T05:22:39.569Z,11.50
2019-01-26T05:27:31.926Z,12.00
2019-01-26T05:32:24.746Z,12.73
2019-01-26T05:37:17.061Z,11.83
2019-01-26T05:42:09.495Z,12.27
2019-01-26T05:47:02.352Z,12.67
2019-01-26T05:51:54.775Z,12.27
2019-01-26T05:56:47.206Z,13.13
2019-01-26T06:01:39.945Z,13.43
2019-01-26T06:06:32.471Z,18.20
2019-01-26T06:11:25.069Z,24.13
2019-01-26T06:16:17.916Z,20.73
2019-01-26T06:21:10.229Z,12.63
2019-01-26T06:26:02.991Z,12.80
2019-01-26T06:30:55.292Z,11.77
2019-01-26T06:35:48.049Z,11.00
2019-01-26T06:40:40.447Z,11.40
2019-01-26T06:45:32.836Z,11.60
2019-01-26T06:50:26.701Z,12.57
2019-01-26T06:55:19.205Z,12.00
2019-01-26T07:00:15.105Z,11.20
2019-01-26T07:05:10.577Z,10.97
2019-01-26T07:10:02.993Z,11.23
2019-01-26T07:14:55.358Z,11.97
2019-01-26T07:19:47.821Z,10.67
2019-01-26T07:24:40.376Z,12.87
2019-01-26T07:29:32.961Z,13.67
2019-01-26T07:34:25.570Z,13.03
2019-01-26T07:39:17.955Z,13.40
2019-01-26T07:44:10.721Z,13.17
2019-01-26T07:49:03.034Z,12.20
2019-01-26T07:53:55.340Z,11.90
2019-01-26T07:58:48.057Z,12.00
2019-01-26T08:03:40.479Z,11.57
2019-01-26T08:08:33.185Z,12.93
2019-01-26T08:13:25.933Z,12.47
2019-01-26T08:18:24.087Z,11.77
2019-01-26T08:23:12.285Z,13.13
2019-01-26T08:28:04.779Z,12.07
2019-01-26T08:32:57.224Z,11.90
2019-01-26T08:37:50.372Z,14.00
2019-01-26T08:42:42.965Z,12.30
2019-01-26T08:47:35.560Z,13.67
2019-01-26T08:52:27.837Z,12.67
2019-01-26T08:57:20.523Z,13.67
2019-01-26T09:02:14.822Z,12.43
2019-01-26T09:07:07.214Z,12.77
2019-01-26T09:11:59.988Z,11.27
2019-01-26T09:16:52.902Z,10.73
2019-01-26T09:21:45.312Z,12.40
2019-01-26T09:26:38.026Z,12.00
2019-01-26T09:31:30.517Z,9.90
2019-01-26T09:36:23.853Z,11.23
2019-01-26T09:41:16.280Z,12.07
2019-01-26T09:46:08.534Z,12.63
2019-01-26T09:51:00.956Z,10.80
2019-01-26T09:55:53.504Z,12.40
2019-01-26T10:00:45.968Z,9.97
2019-01-26T10:05:38.405Z,10.60
2019-01-26T10:10:31.401Z,11.17
2019-01-26T10:15:27.034Z,10.73
2019-01-26T10:20:22.014Z,9.83
2019-01-26T10:25:16.733Z,9.37
2019-01-26T10:30:37.244Z,9.17
2019-01-26T10:35:31.673Z,12.13
2019-01-26T10:40:42.708Z,12.67
2019-01-26T10:45:35.318Z,9.57
2019-01-26T10:50:27.558Z,10.30
2019-01-26T10:55:20.005Z,10.77
2019-01-26T11:00:15.927Z,12.30
2019-01-26T11:05:08.740Z,13.27
2019-01-26T11:10:01.470Z,12.03
2019-01-26T11:14:53.593Z,10.33
2019-01-26T11:19:46.191Z,10.40
2019-01-26T11:24:38.582Z,9.13
2019-01-26T11:29:31.041Z,9.50
2019-01-26T11:34:23.813Z,9.97
2019-01-26T11:39:16.263Z,8.40
2019-01-26T11:44:08.691Z,10.70
2019-01-26T11:49:01.273Z,12.90
2019-01-26T11:53:53.597Z,9.30
2019-01-26T11:58:46.218Z,16.07
2019-01-26T12:03:51.781Z,12.47
2019-01-26T12:08:44.378Z,13.03
2019-01-26T12:13:36.970Z,14.83
2019-01-26T12:18:29.353Z,19.30
2019-01-26T12:23:22.136Z,15.17
2019-01-26T12:28:14.968Z,22.93
2019-01-26T12:33:07.664Z,21.33
2019-01-26T12:37:59.809Z,12.43
2019-01-26T12:42:52.318Z,11.87
2019-01-26T12:47:44.984Z,9.80
2019-01-26T12:52:37.406Z,9.37
2019-01-26T12:57:29.957Z,11.40
2019-01-26T13:02:22.594Z,11.07
2019-01-26T13:07:15.445Z,10.73
2019-01-26T13:12:08.228Z,9.90
2019-01-26T13:17:00.890Z,9.13
2019-01-26T13:21:53.569Z,9.50
2019-01-26T13:26:45.948Z,9.07
2019-01-26T13:31:38.512Z,9.23
2019-01-26T13:36:31.061Z,10.57
2019-01-26T13:41:26.098Z,9.80
2019-01-26T13:46:18.636Z,10.00
2019-01-26T13:51:13.101Z,9.97
2019-01-26T13:56:05.656Z,9.90
2019-01-26T14:00:58.175Z,10.90
2019-01-26T14:05:50.637Z,11.50
2019-01-26T14:10:43.295Z,11.50
2019-01-26T14:15:35.980Z,11.53
2019-01-26T14:20:29.681Z,11.87
2019-01-26T14:25:21.955Z,11.13
2019-01-26T14:30:17.365Z,12.67
2019-01-26T14:35:10.480Z,13.30
2019-01-26T14:40:02.893Z,12.33
2019-01-26T14:44:55.756Z,11.63
2019-01-26T14:49:48.392Z,12.30
2019-01-26T14:54:41.133Z,11.73
2019-01-26T14:59:33.507Z,8.93
2019-01-26T15:04:26.260Z,9.27
2019-01-26T15:09:18.860Z,8.30
2019-01-26T15:14:11.552Z,8.70
2019-01-26T15:19:04.097Z,7.87
2019-01-26T15:23:56.720Z,11.13
2019-01-26T15:28:49.380Z,9.13
2019-01-26T15:33:42.108Z,8.37
2019-01-26T15:38:34.813Z,7.53
2019-01-26T15:43:27.248Z,8.27
2019-01-26T15:48:19.894Z,8.13
2019-01-26T15:53:12.671Z,8.80
2019-01-26T15:58:07.385Z,8.60
2019-01-26T16:03:00.004Z,8.73
2019-01-26T16:07:53.034Z,8.80
2019-01-26T16:12:45.456Z,12.67
2019-01-26T16:17:38.276Z,10.83
2019-01-26T16:22:31.011Z,10.60
2019-01-26T16:27:23.261Z,9.60
2019-01-26T16:32:15.714Z,9.53
2019-01-26T16:37:08.269Z,9.57
2019-01-26T16:42:00.992Z,10.57
2019-01-26T16:46:53.273Z,17.70
2019-01-26T16:51:45.894Z,13.80
2019-01-26T16:56:38.205Z,18.13
2019-01-26T17:01:30.513Z,13.67
2019-01-26T17:06:23.129Z,13.30
2019-01-26T17:11:15.673Z,13.70
2019-01-26T17:16:08.397Z,12.90
2019-01-26T17:21:01.184Z,12.13
2019-01-26T17:25:53.701Z,13.43
2019-01-26T17:30:46.373Z,14.60
2019-01-26T17:35:39.093Z,14.27
2019-01-26T17:40:31.498Z,13.33
2019-01-26T17:45:24.565Z,12.67
2019-01-26T17:50:25.800Z,13.10
2019-01-26T17:55:37.671Z,13.77
2019-01-26T18:00:34.021Z,13.20
2019-01-26T18:05:26.833Z,13.87
2019-01-26T18:10:28.840Z,15.20
2019-01-26T18:15:21.822Z,13.57
2019-01-26T18:20:22.660Z,13.13
2019-01-26T18:25:16.833Z,12.87
2019-01-26T18:30:15.479Z,15.43
2019-01-26T18:35:11.338Z,14.20
2019-01-26T18:40:05.840Z,12.27
2019-01-26T18:44:58.325Z,12.23
2019-01-26T18:49:50.686Z,13.60
2019-01-26T18:54:44.469Z,12.37
2019-01-26T18:59:37.167Z,11.80
2019-01-26T19:04:29.812Z,12.67
2019-01-26T19:09:22.665Z,12.87
2019-01-26T19:14:14.871Z,13.27
2019-01-26T19:19:08.689Z,12.47
2019-01-26T19:24:01.204Z,11.80
2019-01-26T19:28:53.756Z,11.83
2019-01-26T19:33:46.304Z,12.17
2019-01-26T19:38:38.810Z,11.20
2019-01-26T19:43:31.201Z,12.23
2019-01-26T19:48:23.804Z,12.63
2019-01-26T19:53:16.322Z,13.37
2019-01-26T19:58:08.973Z,13.30
2019-01-26T20:03:01.488Z,11.87
2019-01-26T20:07:54.002Z,11.87
2019-01-26T20:12:46.582Z,11.80
2019-01-26T20:17:39.373Z,11.73
2019-01-26T20:22:32.066Z,13.23
2019-01-26T20:27:24.581Z,13.20
2019-01-26T20:32:17.233Z,12.87
2019-01-26T20:37:09.797Z,12.53
2019-01-26T20:42:02.417Z,12.87
2019-01-26T20:46:54.662Z,13.00
2019-01-26T20:51:47.075Z,12.63
2019-01-26T20:56:39.684Z,13.90
2019-01-26T21:01:32.042Z,13.30
2019-01-26T21:06:24.723Z,12.97
2019-01-26T21:11:17.335Z,13.37
2019-01-26T21:16:10.226Z,11.67
2019-01-26T21:21:03.179Z,11.63
2019-01-26T21:25:55.777Z,12.33
2019-01-26T21:30:48.190Z,11.43
2019-01-26T21:35:40.765Z,11.27
2019-01-26T21:40:33.356Z,11.70
2019-01-26T21:45:26.053Z,11.37
2019-01-26T21:50:24.152Z,12.37
2019-01-26T21:55:16.618Z,11.77
2019-01-26T22:00:23.816Z,12.73
2019-01-26T22:05:16.255Z,11.83
2019-01-26T22:10:20.032Z,11.63
2019-01-26T22:15:15.456Z,11.57
2019-01-26T22:20:13.773Z,11.40
2019-01-26T22:25:09.349Z,12.03
2019-01-26T22:30:01.699Z,11.70
2019-01-26T22:34:54.001Z,11.67
2019-01-26T22:39:46.416Z,12.27
2019-01-26T22:44:38.985Z,11.70
2019-01-26T22:49:31.406Z,10.57
2019-01-26T22:54:23.425Z,11.93
2019-01-26T22:59:15.772Z,12.53
2019-01-26T23:04:23.274Z,10.93
2019-01-26T23:09:30.489Z,11.77
2019-01-26T23:14:51.564Z,12.47
2019-01-26T23:19:49.985Z,12.27
2019-01-26T23:24:45.821Z,11.00
2019-01-26T23:29:59.676Z,10.20
2019-01-26T23:34:52.172Z,10.90
2019-01-26T23:39:44.645Z,10.03
2019-01-26T23:44:37.277Z,10.20
2019-01-26T23:49:29.992Z,12.87
2019-01-26T23:54:22.788Z,10.40
2019-01-26T23:59:15.172Z,11.97
